Time;durP1;ratioP1;P1;durP2;ratioP2;P2;SDS_P1;SDS_P2;PMS_P1;PMS_P2;Temp;Humidity;BMP_temperature;BMP_pressure;BME280_temperature;BME280_humidity;BME280_pressure;Samples;Min_cycle;Max_cycle;Signal;HPM_P1;HPM_P2
2022/04/29 00:00:49;;;;;;;3.67;1.13;;;;;;;6.52;66.07;100538.23;1747335;79;21042;-51
2022/04/29 00:03:15;;;;;;;4.63;1.43;;;;;;;6.52;66.23;100536.91;1748942;80;21690;-50
2022/04/29 00:05:43;;;;;;;3.03;1.63;;;;;;;6.54;66.20;100532.41;1751064;80;21086;-51
2022/04/29 00:08:12;;;;;;;3.97;1.57;;;;;;;6.55;66.13;100535.48;1748889;79;21460;-50
2022/04/29 00:10:39;;;;;;;8.33;1.43;;;;;;;6.54;65.96;100534.20;1745166;80;21336;-50
2022/04/29 00:13:09;;;;;;;6.63;1.40;;;;;;;6.50;65.57;100533.82;1747512;79;21054;-50
2022/04/29 00:15:36;;;;;;;3.50;1.70;;;;;;;6.44;65.42;100543.73;1750403;80;21907;-50
2022/04/29 00:18:02;;;;;;;5.67;1.83;;;;;;;6.40;65.45;100543.80;1748583;80;21065;-50
2022/04/29 00:20:30;;;;;;;5.70;1.77;;;;;;;6.35;65.42;100543.91;1746387;79;21541;-50
2022/04/29 00:22:59;;;;;;;4.43;1.87;;;;;;;6.29;65.49;100541.36;1748838;79;21062;-50
2022/04/29 00:25:27;;;;;;;7.10;1.67;;;;;;;6.23;65.64;100536.09;1748381;80;21741;-50
2022/04/29 00:27:54;;;;;;;3.47;1.90;;;;;;;6.19;65.82;100529.52;1747836;80;21663;-50
2022/04/29 00:30:21;;;;;;;5.03;1.70;;;;;;;6.15;65.91;100538.03;1746952;80;21129;-50
2022/04/29 00:32:48;;;;;;;5.30;1.90;;;;;;;6.11;65.92;100533.66;1753973;80;21500;-50
2022/04/29 00:35:16;;;;;;;4.70;1.87;;;;;;;6.04;65.94;100529.31;1748671;80;21486;-50
2022/04/29 00:37:48;;;;;;;5.57;2.00;;;;;;;5.95;66.05;100527.70;1747373;79;21089;-50
2022/04/29 00:40:19;;;;;;;3.17;1.27;;;;;;;5.90;66.19;100528.67;1749356;80;21226;-50
2022/04/29 00:42:45;;;;;;;6.70;1.90;;;;;;;5.84;66.34;100529.64;1750073;80;21515;-50
2022/04/29 00:45:13;;;;;;;5.63;1.53;;;;;;;5.83;66.33;100517.63;1748259;80;21081;-50
2022/04/29 00:47:40;;;;;;;4.60;1.33;;;;;;;5.80;66.39;100523.02;1757685;80;21436;-50
2022/04/29 00:50:08;;;;;;;2.40;1.10;;;;;;;5.76;66.56;100527.55;1747605;80;21567;-51
2022/04/29 00:52:38;;;;;;;8.83;1.87;;;;;;;5.72;66.57;100531.16;1750497;79;21022;-50
2022/04/29 00:55:08;;;;;;;4.50;1.60;;;;;;;5.67;66.67;100529.03;1750204;79;21019;-50
2022/04/29 00:57:47;;;;;;;3.97;1.20;;;;;;;5.59;66.87;100525.60;1749148;80;21061;-50
2022/04/29 01:00:15;;;;;;;2.70;1.53;;;;;;;5.52;67.02;100522.60;1744069;79;20999;-50
2022/04/29 01:02:43;;;;;;;2.43;1.50;;;;;;;5.44;67.06;100524.51;1753532;79;21664;-50
2022/04/29 01:05:14;;;;;;;4.53;1.40;;;;;;;5.35;67.21;100528.65;1751364;80;21468;-50
2022/04/29 01:07:42;;;;;;;8.17;1.90;;;;;;;5.28;67.32;100522.49;1750085;79;21061;-50
2022/04/29 01:10:12;;;;;;;8.27;2.17;;;;;;;5.21;67.41;100540.39;1748580;79;21502;-50
2022/04/29 01:12:41;;;;;;;5.20;2.27;;;;;;;5.16;67.55;100536.91;1748026;79;22103;-50
2022/04/29 01:15:14;;;;;;;5.03;1.73;;;;;;;5.11;67.64;100532.07;1747529;79;21055;-50
2022/04/29 01:17:43;;;;;;;2.30;1.30;;;;;;;5.07;67.86;100537.04;1748024;79;21089;-50
2022/04/29 01:20:13;;;;;;;3.47;1.50;;;;;;;5.05;68.01;100531.28;1750064;80;21085;-50
2022/04/29 01:22:43;;;;;;;4.33;1.77;;;;;;;5.05;68.11;100524.16;1749958;80;20923;-50
2022/04/29 01:25:12;;;;;;;9.03;1.47;;;;;;;5.08;68.18;100526.80;1753219;79;20907;-49
2022/04/29 01:27:41;;;;;;;6.30;1.33;;;;;;;5.11;68.22;100517.39;1753216;80;21128;-50
2022/04/29 01:30:13;;;;;;;2.87;1.00;;;;;;;5.15;68.28;100514.24;1747070;79;21040;-50
2022/04/29 01:32:41;;;;;;;13.17;1.60;;;;;;;5.18;68.21;100516.88;1750817;80;20944;-50
2022/04/29 01:35:09;;;;;;;2.83;1.30;;;;;;;5.21;68.11;100507.02;1751829;79;21034;-50
2022/04/29 01:37:36;;;;;;;6.00;1.53;;;;;;;5.24;68.04;100506.98;1747427;79;21339;-51
2022/04/29 01:40:05;;;;;;;2.40;1.23;;;;;;;5.27;67.89;100504.26;1743146;80;21471;-50
2022/04/29 01:42:32;;;;;;;4.30;1.37;;;;;;;5.29;67.78;100509.13;1752160;79;21523;-50
2022/04/29 01:45:01;;;;;;;5.20;1.30;;;;;;;5.26;67.54;100510.53;1738561;80;21022;-50
2022/04/29 01:47:29;;;;;;;5.53;2.57;;;;;;;5.20;67.46;100512.38;1749035;80;21097;-50
2022/04/29 01:50:13;;;;;;;5.00;2.47;;;;;;;5.09;67.50;100511.22;1746924;79;21274;-50
2022/04/29 01:52:40;;;;;;;7.67;2.10;;;;;;;5.01;67.61;100522.45;1747578;80;21307;-50
2022/04/29 01:55:07;;;;;;;3.70;2.07;;;;;;;4.91;67.71;100520.80;1747844;80;20993;-49
2022/04/29 01:57:35;;;;;;;5.07;1.77;;;;;;;4.80;67.88;100525.38;1748771;79;21062;-50
2022/04/29 02:00:05;;;;;;;4.10;1.53;;;;;;;4.69;68.00;100523.29;1747003;80;21053;-49
2022/04/29 02:02:41;;;;;;;4.87;1.80;;;;;;;4.58;68.09;100527.89;1730958;80;21798;-50
2022/04/29 02:05:11;;;;;;;4.57;1.30;;;;;;;4.48;68.42;100529.33;1756070;79;21038;-49
2022/04/29 02:07:37;;;;;;;3.80;1.30;;;;;;;4.42;68.65;100533.37;1751498;80;21965;-50
2022/04/29 02:10:06;;;;;;;5.23;1.40;;;;;;;4.38;68.87;100524.99;1749682;80;20998;-50
2022/04/29 02:12:35;;;;;;;2.63;1.30;;;;;;;4.37;69.08;100525.89;1752042;79;21410;-49
2022/04/29 02:15:22;;;;;;;5.53;1.70;;;;;;;4.38;69.16;100522.77;1747013;79;21129;-50
2022/04/29 02:17:50;;;;;;;5.20;1.43;;;;;;;4.37;69.28;100518.34;1750430;80;21038;-50
2022/04/29 02:20:21;;;;;;;5.43;1.37;;;;;;;4.36;69.46;100522.78;1754121;79;21053;-49
2022/04/29 02:22:48;;;;;;;4.50;1.20;;;;;;;4.34;69.43;100530.39;1712375;82;21005;-50
2022/04/29 02:25:16;;;;;;;7.13;1.87;;;;;;;4.29;69.51;100532.20;1709278;82;21081;-50
2022/04/29 02:27:44;;;;;;;10.57;1.90;;;;;;;4.25;69.44;100535.81;1711853;82;21674;-49
2022/04/29 02:30:13;;;;;;;4.07;2.17;;;;;;;4.21;69.43;100535.39;1714328;82;21100;-49
2022/04/29 02:32:41;;;;;;;7.37;1.97;;;;;;;4.20;69.60;100538.50;1712044;82;21013;-50
2022/04/29 02:35:08;;;;;;;3.60;1.63;;;;;;;4.20;69.59;100538.50;1745572;79;21007;-50
2022/04/29 02:37:36;;;;;;;3.87;2.03;;;;;;;4.20;69.60;100542.50;1750900;79;21681;-51
2022/04/29 02:40:07;;;;;;;4.40;1.80;;;;;;;4.20;69.70;100545.16;1750663;80;21902;-49
2022/04/29 02:42:33;;;;;;;6.80;2.43;;;;;;;4.17;69.62;100543.85;1754524;80;21144;-50
2022/04/29 02:45:01;;;;;;;4.63;2.53;;;;;;;4.14;69.77;100543.91;1738280;80;21132;-50
2022/04/29 02:47:29;;;;;;;6.90;2.47;;;;;;;4.10;69.84;100540.38;1749399;80;21457;-49
2022/04/29 02:49:56;;;;;;;6.13;2.13;;;;;;;4.09;70.06;100543.05;1751579;79;21141;-50
2022/04/29 02:52:24;;;;;;;6.00;1.97;;;;;;;4.09;70.14;100548.38;1751296;79;21306;-50
2022/04/29 02:54:51;;;;;;;5.43;2.30;;;;;;;4.12;70.25;100545.69;1746296;79;21173;-49
2022/04/29 02:57:25;;;;;;;6.25;1.90;;;;;;;4.13;70.24;100546.13;1736458;79;24894;-50
2022/04/29 02:59:51;;;;;;;7.10;2.27;;;;;;;4.13;70.21;100548.80;1742726;79;21627;-49
2022/04/29 03:02:18;;;;;;;5.00;2.13;;;;;;;4.13;70.29;100547.46;1751244;79;21026;-50
2022/04/29 03:04:46;;;;;;;6.03;2.30;;;;;;;4.12;70.44;100553.69;1744262;79;21134;-50
2022/04/29 03:07:14;;;;;;;8.47;3.20;;;;;;;4.08;70.44;100551.96;1751826;80;21046;-49
2022/04/29 03:09:51;;;;;;;5.53;3.10;;;;;;;4.01;70.41;100556.88;1751733;80;21058;-50
2022/04/29 03:12:19;;;;;;;8.50;2.30;;;;;;;3.97;70.60;100557.38;1751014;80;21089;-50
2022/04/29 03:14:48;;;;;;;6.30;2.67;;;;;;;3.92;70.63;100561.84;1748318;79;21026;-50
2022/04/29 03:20:04;;;;;;;8.10;2.07;;;;;;;3.79;70.94;100571.73;1751657;79;21390;-50
2022/04/29 03:22:31;;;;;;;6.87;2.67;;;;;;;3.77;71.17;100569.52;1749085;80;21088;-48
2022/04/29 03:24:57;;;;;;;8.27;2.07;;;;;;;3.77;71.35;100565.52;1745454;80;21981;-48
2022/04/29 03:27:24;;;;;;;4.90;2.10;;;;;;;3.80;71.59;100569.51;1746812;80;21037;-49
2022/04/29 03:29:51;;;;;;;7.47;1.90;;;;;;;3.88;71.82;100575.21;1752002;79;21565;-49
2022/04/29 03:32:18;;;;;;;5.40;2.40;;;;;;;3.97;72.04;100570.70;1756062;80;21042;-49
2022/04/29 03:34:51;;;;;;;5.77;2.50;;;;;;;4.05;72.09;100573.30;1752893;80;21025;-49
2022/04/29 03:37:17;;;;;;;8.50;2.50;;;;;;;4.11;72.19;100575.89;1758554;80;21516;-49
2022/04/29 03:39:45;;;;;;;8.13;1.97;;;;;;;4.18;72.31;100578.93;1760072;80;21021;-49
2022/04/29 03:42:12;;;;;;;6.60;3.27;;;;;;;4.28;72.44;100583.73;1755808;80;21780;-48
2022/04/29 03:44:39;;;;;;;8.57;2.80;;;;;;;4.37;72.53;100583.20;1756408;80;21456;-49
2022/04/29 03:47:06;;;;;;;7.63;3.47;;;;;;;4.42;72.63;100582.69;1755037;80;21045;-49
2022/04/29 03:49:49;;;;;;;11.63;3.87;;;;;;;4.49;72.57;100590.20;1677151;84;21130;-49
2022/04/29 03:52:22;;;;;;;5.27;2.80;;;;;;;4.58;72.64;100580.77;1733759;80;21033;-49
2022/04/29 03:54:51;;;;;;;7.23;2.47;;;;;;;4.70;72.57;100585.95;1756358;80;21939;-49
2022/04/29 03:57:18;;;;;;;6.60;2.50;;;;;;;4.82;72.54;100588.94;1755109;80;20915;-53
2022/04/29 03:59:48;;;;;;;6.70;3.30;;;;;;;4.93;72.44;100587.89;1752870;80;21521;-49
2022/04/29 04:02:16;;;;;;;6.43;3.93;;;;;;;5.10;72.35;100586.83;1755821;80;21049;-49
2022/04/29 04:04:44;;;;;;;6.77;2.77;;;;;;;5.30;72.23;100584.75;1758202;80;21566;-49
2022/04/29 04:07:12;;;;;;;6.70;2.97;;;;;;;5.55;72.07;100585.29;1761222;80;21476;-49
2022/04/29 04:09:48;;;;;;;9.33;3.30;;;;;;;5.89;71.98;100580.34;1757123;80;21085;-49
2022/04/29 04:12:14;;;;;;;11.03;4.20;;;;;;;6.34;71.99;100585.38;1753888;80;21104;-50
2022/04/29 04:15:02;;;;;;;11.17;5.83;;;;;;;6.84;71.10;100578.61;1758790;80;21566;-50
2022/04/29 04:17:32;;;;;;;10.10;4.60;;;;;;;7.51;69.89;100571.81;1757255;80;21748;-50
2022/04/29 04:20:00;;;;;;;10.93;4.57;;;;;;;8.17;68.46;100571.55;1759580;80;21821;-50
2022/04/29 04:22:30;;;;;;;7.10;4.07;;;;;;;8.75;66.06;100575.44;1756686;80;21101;-49
2022/04/29 04:24:59;;;;;;;9.50;3.83;;;;;;;9.22;63.95;100574.05;1691671;80;21579;-49
2022/04/29 04:27:26;;;;;;;7.77;3.73;;;;;;;9.65;62.10;100567.78;1762885;80;20995;-53
2022/04/29 04:29:54;;;;;;;7.13;3.80;;;;;;;10.06;60.12;100572.28;1758161;80;21073;-50
2022/04/29 04:32:20;;;;;;;7.33;2.80;;;;;;;10.23;58.63;100573.52;1749494;79;22082;-49
2022/04/29 04:34:50;;;;;;;6.67;2.93;;;;;;;10.28;57.67;100579.22;1755265;79;21624;-49
2022/04/29 04:37:23;;;;;;;6.60;3.17;;;;;;;10.40;56.54;100566.67;1751845;79;20950;-50
2022/04/29 04:39:52;;;;;;;8.60;2.73;;;;;;;10.33;56.44;100570.05;1749642;79;21030;-49
2022/04/29 04:42:24;;;;;;;4.53;1.80;;;;;;;10.27;56.48;100582.84;1749128;80;21569;-49
2022/04/29 04:44:50;;;;;;;5.53;1.93;;;;;;;10.19;56.16;100579.95;1749778;79;21559;-50
2022/04/29 04:47:18;;;;;;;5.13;1.50;;;;;;;10.11;55.58;100576.60;1748505;79;21078;-49
2022/04/29 04:49:54;;;;;;;3.17;1.30;;;;;;;10.00;56.05;100579.22;1751503;80;21610;-50
2022/04/29 04:52:22;;;;;;;3.13;1.57;;;;;;;9.94;56.39;100577.62;1749435;80;21448;-49
2022/04/29 04:54:49;;;;;;;3.20;1.30;;;;;;;9.93;56.28;100575.86;1751457;80;21694;-50
2022/04/29 04:57:17;;;;;;;5.17;1.13;;;;;;;9.92;56.25;100572.75;1747726;80;22007;-50
2022/04/29 04:59:45;;;;;;;2.90;1.13;;;;;;;9.95;56.22;100575.35;1733644;80;21100;-49
2022/04/29 05:02:12;;;;;;;2.40;0.97;;;;;;;10.00;55.96;100573.84;1749347;79;21074;-50
2022/04/29 05:04:45;;;;;;;3.53;1.10;;;;;;;10.09;55.15;100579.80;1699150;79;21042;-50
2022/04/29 05:07:25;;;;;;;1.83;1.00;;;;;;;10.18;54.81;100575.95;1692168;80;21057;-49
2022/04/29 05:09:53;;;;;;;3.33;0.90;;;;;;;10.27;54.59;100578.80;1748751;80;22317;-50
2022/04/29 05:12:20;;;;;;;4.33;1.00;;;;;;;10.36;54.28;100574.45;1741005;80;20887;-50
2022/04/29 05:15:01;;;;;;;2.07;0.90;;;;;;;10.46;53.87;100566.48;1711447;80;21006;-49
2022/04/29 05:17:30;;;;;;;3.93;1.10;;;;;;;10.58;53.71;100566.03;1748468;80;20990;-49
2022/04/29 05:20:16;;;;;;;4.95;1.57;;;;;;;10.72;53.46;100570.45;1747157;80;21006;-48
2022/04/29 05:22:45;;;;;;;2.25;1.02;;;;;;;10.84;52.95;100564.64;1750336;80;21365;-50
2022/04/29 05:25:13;;;;;;;2.12;0.98;;;;;;;10.96;52.83;100570.94;1749271;80;21034;-49
2022/04/29 05:27:58;;;;;;;2.67;1.00;;;;;;;11.08;52.58;100572.74;1746659;80;21046;-47
2022/04/29 05:30:43;;;;;;;;;;;;;;;11.21;52.45;100572.25;1748750;80;21172;-50
2022/04/29 05:33:30;;;;;;;3.20;0.90;;;;;;;11.35;52.01;100577.09;1749187;80;20163;-50
2022/04/29 05:36:07;;;;;;;3.45;1.05;;;;;;;11.45;50.82;100576.28;1735384;80;21176;-50
2022/04/29 05:45:13;;;;;;;1.53;0.70;;;;;;;11.91;49.64;100578.08;1793913;78;22522;-52
2022/04/29 05:47:41;;;;;;;1.47;0.70;;;;;;;11.96;49.49;100578.28;1770612;80;20990;-51
2022/04/29 05:50:07;;;;;;;2.00;0.70;;;;;;;12.07;48.73;100576.50;1766116;80;21597;-48
2022/04/29 05:52:34;;;;;;;0.85;0.50;;;;;;;12.17;48.63;100579.67;1765976;80;21025;-51
2022/04/29 05:55:03;;;;;;;0.90;0.40;;;;;;;12.27;47.91;100586.45;1712480;83;20934;-52
2022/04/29 05:57:31;;;;;;;2.02;0.57;;;;;;;12.35;47.60;100591.05;1723470;81;20965;-51
2022/04/29 05:59:59;;;;;;;3.42;0.60;;;;;;;12.45;47.41;100591.95;1700702;83;21029;-50
2022/04/29 06:02:47;;;;;;;1.40;0.60;;;;;;;12.54;46.90;100594.73;1705328;83;20975;-51
2022/04/29 06:05:16;;;;;;;3.45;0.55;;;;;;;12.63;46.55;100591.64;1702088;83;21076;-51
2022/04/29 06:07:44;;;;;;;4.40;0.60;;;;;;;12.70;46.41;100593.13;1730293;82;20941;-51
2022/04/29 06:10:13;;;;;;;2.42;0.60;;;;;;;12.76;46.05;100590.65;1728708;82;20907;-51
2022/04/29 06:12:41;;;;;;;3.37;0.60;;;;;;;12.81;45.50;100592.66;1709103;82;20911;-52
2022/04/29 06:15:17;;;;;;;2.47;0.50;;;;;;;12.87;45.63;100593.73;1714206;82;21105;-52
2022/04/29 06:18:03;;;;;;;9.80;0.70;;;;;;;12.94;45.03;100593.86;1722876;82;20868;-54
2022/04/29 06:20:46;;;;;;;4.40;0.50;;;;;;;13.02;44.69;100590.81;1716248;82;20903;-52
2022/04/29 06:23:16;;;;;;;1.90;0.40;;;;;;;13.09;44.57;100589.61;1719481;82;21021;-52
2022/04/29 06:25:42;;;;;;;2.55;0.50;;;;;;;13.17;43.87;100589.70;1696684;82;21057;-50
2022/04/29 06:28:10;;;;;;;0.60;0.40;;;;;;;13.19;43.40;100586.91;1717951;82;21041;-51
2022/04/29 06:30:38;;;;;;;0.65;0.45;;;;;;;13.21;43.91;100584.55;1718615;82;20934;-53
2022/04/29 06:33:16;;;;;;;1.75;0.50;;;;;;;13.27;43.40;100591.48;1713523;82;21108;-52
2022/04/29 06:35:47;;;;;;;1.05;0.50;;;;;;;13.33;43.31;100594.41;1716819;82;21068;-51
2022/04/29 06:38:15;;;;;;;2.55;0.50;;;;;;;13.33;42.63;100596.63;1715897;82;21451;-52
2022/04/29 06:40:58;;;;;;;2.77;0.40;;;;;;;13.33;42.66;100597.98;1702648;82;21146;-51
2022/04/29 06:43:28;;;;;;;1.90;0.40;;;;;;;13.38;43.06;100593.23;1714669;82;21152;-50
2022/04/29 06:46:15;;;;;;;1.80;0.30;;;;;;;13.42;42.92;100598.91;1656290;85;21087;-51
2022/04/29 06:49:00;;;;;;;1.37;0.45;;;;;;;13.50;42.25;100596.73;1688156;84;21116;-51
2022/04/29 06:51:45;;;;;;;0.60;0.30;;;;;;;13.58;42.37;100599.06;1725755;82;21061;-52
2022/04/29 06:54:18;;;;;;;1.50;0.28;;;;;;;13.64;41.55;100596.94;1722817;82;21525;-50
2022/04/29 06:56:47;;;;;;;0.30;0.20;;;;;;;13.74;41.17;100604.15;1725714;82;22061;-50
2022/04/29 06:59:16;;;;;;;2.87;0.40;;;;;;;13.82;40.51;100599.72;1719747;82;21122;-49
2022/04/29 07:01:43;;;;;;;0.40;0.20;;;;;;;13.88;40.32;100599.42;1697962;82;21014;-49
2022/04/29 07:04:11;;;;;;;1.67;0.30;;;;;;;13.91;38.80;100606.05;1718969;81;21526;-47
2022/04/29 07:06:38;;;;;;;1.02;0.30;;;;;;;13.91;38.68;100607.40;1725849;82;21465;-50
2022/04/29 07:09:06;;;;;;;0.80;0.40;;;;;;;13.89;38.26;100610.65;1723070;81;21489;-50
2022/04/29 07:11:55;;;;;;;2.12;0.30;;;;;;;13.88;38.78;100599.42;1720001;82;21498;-48
2022/04/29 07:14:35;;;;;;;0.25;0.20;;;;;;;13.91;39.45;100602.86;1728082;82;21128;-50
2022/04/29 07:17:08;;;;;;;0.37;0.20;;;;;;;13.98;39.24;100600.25;1721528;82;21310;-48
2022/04/29 07:19:39;;;;;;;0.40;0.20;;;;;;;14.10;39.25;100597.91;1727356;82;21827;-49
2022/04/29 07:22:06;;;;;;;1.20;0.30;;;;;;;14.22;38.77;100594.58;1720424;82;21970;-49
2022/04/29 07:24:34;;;;;;;0.50;0.30;;;;;;;14.35;39.22;100593.91;1725150;82;21016;-51
2022/04/29 07:27:03;;;;;;;0.62;0.30;;;;;;;14.49;37.99;100590.99;1721465;82;21480;-52
2022/04/29 07:29:32;;;;;;;0.65;0.30;;;;;;;14.56;37.41;100585.66;1726788;82;21603;-51
2022/04/29 07:32:01;;;;;;;0.85;0.30;;;;;;;14.60;37.01;100585.44;1725206;82;21527;-52
2022/04/29 07:43:17;;;;;;;2.12;0.25;;;;;;;14.71;34.80;100578.99;1724850;82;21077;-52
2022/04/29 07:45:44;;;;;;;0.72;0.20;;;;;;;14.62;35.53;100575.87;1738796;80;21142;-52
2022/04/29 07:48:25;;;;;;;2.55;0.30;;;;;;;14.62;36.03;100581.30;1712901;80;22696;-50
2022/04/29 07:50:53;;;;;;;0.45;0.30;;;;;;;14.67;36.54;100577.38;1762343;80;21026;-52
2022/04/29 07:53:21;;;;;;;4.50;0.30;;;;;;;14.70;35.42;100576.36;1765307;80;21593;-53
2022/04/29 07:55:48;;;;;;;0.70;0.20;;;;;;;14.68;35.68;100572.84;1764911;80;21133;-49
2022/04/29 07:58:15;;;;;;;0.88;0.35;;;;;;;14.73;35.69;100569.40;1765410;80;23078;-49
2022/04/29 08:00:43;;;;;;;0.82;0.20;;;;;;;14.77;35.32;100569.66;1767024;80;21115;-50
2022/04/29 08:03:11;;;;;;;1.82;0.30;;;;;;;14.82;35.75;100569.39;1693733;82;21419;-51
2022/04/29 08:05:53;;;;;;;0.45;0.23;;;;;;;14.88;35.39;100568.62;1692375;84;21452;-50
2022/04/29 08:08:21;;;;;;;1.07;0.30;;;;;;;14.88;35.39;100568.62;1692885;82;21106;-55
2022/04/29 08:10:49;;;;;;;0.50;0.30;;;;;;;14.90;35.27;100565.33;1697086;84;21137;-51
2022/04/29 08:13:17;;;;;;;1.40;0.30;;;;;;;14.88;35.01;100562.32;1694812;82;21067;-49
2022/04/29 08:16:03;;;;;;;2.35;0.20;;;;;;;14.91;35.27;100560.78;1641720;85;21055;-52
2022/04/29 08:18:49;;;;;;;1.37;0.20;;;;;;;14.91;35.27;100560.78;1739314;80;21384;-49
2022/04/29 08:21:17;;;;;;;0.30;0.17;;;;;;;14.92;35.39;100554.41;1768928;80;20949;-52
2022/04/29 08:23:43;;;;;;;0.88;0.30;;;;;;;14.91;35.16;100557.59;1695639;82;21645;-51
2022/04/29 08:26:12;;;;;;;1.80;0.30;;;;;;;14.94;34.60;100560.15;1695702;83;21436;-51
2022/04/29 08:28:42;;;;;;;0.60;0.40;;;;;;;14.91;34.32;100551.30;1716651;82;21486;-51
2022/04/29 08:31:09;;;;;;;2.58;0.40;;;;;;;14.90;35.26;100554.48;1765710;80;21263;-53
2022/04/29 08:33:49;;;;;;;1.12;0.30;;;;;;;14.99;34.23;100540.91;1761882;80;21496;-53
2022/04/29 08:36:17;;;;;;;1.05;0.30;;;;;;;14.99;34.23;100540.91;1671798;82;21107;-53
2022/04/29 08:38:46;;;;;;;0.42;0.30;;;;;;;15.09;35.04;100552.55;1697668;84;20990;-53
2022/04/29 08:41:13;;;;;;;0.95;0.40;;;;;;;15.17;34.44;100541.75;1690974;82;21058;-51
2022/04/29 08:43:42;;;;;;;0.72;0.53;;;;;;;15.20;34.62;100540.23;1715943;80;20950;-50
2022/04/29 08:46:09;;;;;;;0.95;0.40;;;;;;;15.26;35.15;100527.69;1753221;80;21030;-51
2022/04/29 08:48:43;;;;;;;1.92;0.45;;;;;;;15.33;34.96;100536.75;1735542;81;21595;-53
2022/04/29 08:51:09;;;;;;;0.98;0.33;;;;;;;15.40;34.00;100530.02;1756364;81;21068;-51
2022/04/29 08:53:37;;;;;;;0.50;0.30;;;;;;;15.45;34.46;100526.59;1752909;81;21045;-53
2022/04/29 08:58:49;;;;;;;0.60;0.40;;;;;;;15.57;34.61;100518.77;1756637;81;21078;-50
2022/04/29 09:01:16;;;;;;;1.60;0.40;;;;;;;15.56;35.03;100523.80;1755995;81;21311;-52
2022/04/29 09:03:45;;;;;;;1.50;0.33;;;;;;;15.55;34.73;100526.98;1681975;83;21134;-52
2022/04/29 09:06:12;;;;;;;0.70;0.40;;;;;;;15.54;34.73;100521.64;1681335;84;21039;-53
2022/04/29 09:08:42;;;;;;;2.75;0.40;;;;;;;15.50;34.69;100529.03;1755683;81;21263;-52
2022/04/29 09:11:14;;;;;;;1.22;0.50;;;;;;;15.49;34.85;100529.52;1685609;82;21514;-51
2022/04/29 09:13:41;;;;;;;1.65;0.40;;;;;;;15.45;34.87;100525.23;1684010;84;22555;-52
2022/04/29 09:16:12;;;;;;;0.72;0.50;;;;;;;15.44;35.02;100526.67;1752039;81;21450;-51
2022/04/29 09:18:55;;;;;;;0.70;0.40;;;;;;;15.44;35.18;100530.27;1753895;81;21511;-52
2022/04/29 09:21:30;;;;;;;2.37;0.50;;;;;;;15.47;34.91;100523.32;1755895;81;21042;-51
2022/04/29 09:24:00;;;;;;;1.95;0.35;;;;;;;15.52;34.74;100520.33;1686429;83;21374;-50
2022/04/29 09:26:44;;;;;;;0.53;0.40;;;;;;;15.58;35.40;100518.66;1685609;84;21804;-53
2022/04/29 09:29:19;;;;;;;1.52;0.30;;;;;;;15.68;35.45;100514.46;1681807;84;21160;-50
2022/04/29 09:31:57;;;;;;;0.57;0.40;;;;;;;15.73;34.71;100515.09;1687224;82;21331;-49
2022/04/29 09:34:48;;;;;;;0.70;0.40;;;;;;;15.74;34.28;100511.86;1757814;81;21062;-52
2022/04/29 09:37:21;;;;;;;0.85;0.50;;;;;;;15.74;34.17;100513.22;1754390;81;21097;-51
2022/04/29 09:39:56;;;;;;;1.25;0.42;;;;;;;15.66;33.95;100516.86;1756190;81;21995;-51
2022/04/29 09:42:23;;;;;;;1.57;0.50;;;;;;;15.56;34.15;100525.16;1754664;81;21037;-52
2022/04/29 09:44:50;;;;;;;2.17;0.40;;;;;;;15.42;34.08;100516.38;1746207;81;21275;-51
2022/04/29 09:47:21;;;;;;;0.70;0.50;;;;;;;15.33;34.43;100515.53;1724413;82;21083;-51
2022/04/29 09:49:58;;;;;;;3.22;0.50;;;;;;;15.24;34.47;100506.55;1724322;82;21368;-51
2022/04/29 09:52:30;;;;;;;1.35;0.55;;;;;;;15.22;34.64;100511.20;1725166;82;22258;-52
2022/04/29 09:54:57;;;;;;;1.80;0.40;;;;;;;15.20;35.21;100507.70;1727189;82;21063;-51
2022/04/29 09:57:24;;;;;;;1.20;0.80;;;;;;;15.17;35.33;100509.21;1687293;82;20947;-50
2022/04/29 09:59:55;;;;;;;0.85;0.70;;;;;;;15.01;35.66;100504.64;1725775;82;20902;-54
2022/04/29 10:02:23;;;;;;;0.70;0.60;;;;;;;15.01;35.66;100504.64;1723745;82;20909;-53
2022/04/29 10:04:52;;;;;;;1.05;0.53;;;;;;;14.97;35.76;100504.39;1722259;82;22158;-53
2022/04/29 10:07:20;;;;;;;1.10;0.47;;;;;;;14.95;36.20;100514.47;1721502;82;20977;-53
2022/04/29 10:09:51;;;;;;;0.98;0.30;;;;;;;14.95;36.12;100509.05;1722788;82;21160;-53
2022/04/29 10:12:19;;;;;;;0.40;0.30;;;;;;;14.94;36.52;100505.94;1725668;82;21053;-53
2022/04/29 10:14:51;;;;;;;0.60;0.40;;;;;;;14.98;36.72;100506.62;1724895;82;21147;-53
2022/04/29 10:23:11;;;;;;;1.20;0.30;;;;;;;15.06;36.43;100509.80;1724203;82;20978;-50
2022/04/29 10:25:43;;;;;;;2.12;0.40;;;;;;;15.10;36.29;100511.39;1720685;82;21052;-51
2022/04/29 10:28:16;;;;;;;1.50;0.40;;;;;;;15.27;36.10;100503.68;1725421;82;22185;-51
2022/04/29 10:30:43;;;;;;;0.62;0.40;;;;;;;15.27;36.10;100503.68;1721519;82;21239;-52
2022/04/29 10:33:19;;;;;;;1.00;0.50;;;;;;;15.39;35.47;100503.89;1723556;82;21048;-51
2022/04/29 10:35:53;;;;;;;0.47;0.30;;;;;;;15.49;34.75;100505.09;1699275;82;21033;-48
2022/04/29 10:38:34;;;;;;;1.30;0.40;;;;;;;15.56;35.12;100488.52;1722015;82;21089;-51
2022/04/29 10:41:20;;;;;;;0.33;0.30;;;;;;;15.71;34.52;100499.84;1727719;82;21633;-51
2022/04/29 10:43:56;;;;;;;3.20;0.53;;;;;;;15.92;33.98;100492.28;1725332;82;21829;-51
2022/04/29 10:46:37;;;;;;;2.22;0.40;;;;;;;15.92;33.98;100492.28;1729727;80;21032;-52
2022/04/29 10:49:30;;;;;;;0.40;0.33;;;;;;;15.99;34.37;100486.91;1730103;81;21037;-52
2022/04/29 10:52:27;;;;;;;0.62;0.35;;;;;;;16.07;34.55;100484.61;1731762;81;21689;-51
2022/04/29 10:55:04;;;;;;;0.42;0.30;;;;;;;16.08;34.20;100483.14;1732343;82;20948;-52
2022/04/29 10:57:39;;;;;;;0.53;0.30;;;;;;;16.03;34.20;100487.10;1718702;82;21871;-51
2022/04/29 11:00:11;;;;;;;0.82;0.40;;;;;;;16.00;34.14;100484.56;1733293;82;21475;-50
2022/04/29 11:02:41;;;;;;;1.12;0.33;;;;;;;15.95;34.07;100478.05;1733596;81;21108;-51
2022/04/29 11:05:08;;;;;;;0.78;0.30;;;;;;;15.94;34.55;100484.93;1733039;81;21192;-52
2022/04/29 11:07:46;;;;;;;1.60;0.40;;;;;;;15.89;34.24;100481.14;1701367;81;21489;-52
2022/04/29 11:10:22;;;;;;;1.60;0.40;;;;;;;15.83;34.69;100482.35;1731538;81;21538;-53
2022/04/29 11:13:03;;;;;;;2.55;0.40;;;;;;;15.78;34.48;100484.95;1734235;81;21056;-50
2022/04/29 11:15:49;;;;;;;0.50;0.30;;;;;;;15.72;34.53;100478.05;1733858;81;20919;-54
2022/04/29 11:18:27;;;;;;;0.50;0.30;;;;;;;15.71;34.49;100479.02;1700106;81;21427;-54
2022/04/29 11:20:57;;;;;;;1.30;0.50;;;;;;;15.77;34.46;100476.41;1733085;81;21580;-49
2022/04/29 11:26:16;;;;;;;0.82;0.20;;;;;;;15.89;34.82;100467.56;1731196;81;21050;-49
2022/04/29 11:28:53;;;;;;;0.30;0.20;;;;;;;15.95;34.29;100464.96;1670459;84;21525;-51
2022/04/29 11:31:35;;;;;;;4.83;0.37;;;;;;;15.99;34.07;100459.24;1684545;83;21298;-50
2022/04/29 11:34:16;;;;;;;0.35;0.30;;;;;;;16.04;34.19;100460.34;1668717;84;21077;-48
2022/04/29 11:36:43;;;;;;;0.98;0.30;;;;;;;16.06;34.49;100461.14;1686897;83;21691;-49
2022/04/29 11:39:17;;;;;;;2.35;0.40;;;;;;;16.08;34.70;100457.82;1664846;85;21568;-50
2022/04/29 11:41:54;;;;;;;0.60;0.37;;;;;;;16.06;34.25;100449.80;1685986;83;21633;-50
2022/04/29 11:44:40;;;;;;;0.82;0.30;;;;;;;16.11;34.60;100450.86;1669945;84;21246;-52
2022/04/29 11:47:06;;;;;;;0.30;0.25;;;;;;;16.14;33.60;100450.20;1755903;80;21384;-49
2022/04/29 11:49:34;;;;;;;0.50;0.37;;;;;;;16.13;32.75;100444.37;1692829;82;21492;-48
2022/04/29 11:52:20;;;;;;;0.30;0.20;;;;;;;16.17;32.71;100442.33;1702223;83;20970;-51
2022/04/29 11:54:59;;;;;;;1.07;0.30;;;;;;;16.23;33.48;100427.92;1698683;83;21077;-52
2022/04/29 11:57:28;;;;;;;0.50;0.30;;;;;;;16.31;33.66;100431.53;1701313;83;21124;-51
2022/04/29 11:59:54;;;;;;;0.40;0.30;;;;;;;16.36;31.72;100428.52;1705519;83;20939;-51
2022/04/29 12:02:22;;;;;;;1.50;0.30;;;;;;;16.28;32.36;100427.63;1701075;83;21145;-49
2022/04/29 12:05:05;;;;;;;2.70;0.30;;;;;;;16.24;31.91;100427.45;1698056;83;21467;-51
2022/04/29 12:07:40;;;;;;;0.40;0.20;;;;;;;16.18;32.23;100424.59;1706908;83;21125;-49
2022/04/29 12:10:24;;;;;;;0.80;0.20;;;;;;;16.14;32.20;100412.66;1702517;83;21346;-51
2022/04/29 12:12:58;;;;;;;1.85;0.23;;;;;;;16.11;32.52;100411.48;1704301;83;21144;-49
2022/04/29 12:15:32;;;;;;;1.82;0.20;;;;;;;16.11;32.61;100407.41;1699595;83;21111;-51
2022/04/29 12:18:00;;;;;;;0.50;0.30;;;;;;;16.13;32.97;100405.00;1698837;83;21405;-50